Atlantic - Newfoundland: Past 24 Hour Conditions

 

Ferolle Point

01:30 PM NDT 21 September 2014
This table is a summary of hourly weather conditions for the past 24 hours.
Date / Time
(NDT)
Wind(knots) Conditions Visibility(km) Pressure(kPa) Air tempC) Relative humidity(%) Dew pointC)
21 September 2014
13:30 SW 21 gust 28 N/A N/A 100.9 12 94 11
12:30 SW 22 gust 28 N/A N/A 100.9 12 94 11
11:30 WSW 18 gust 27 N/A N/A 100.9 12 94 11
10:30 WSW 20 gust 25 N/A N/A 100.9 11 94 10
9:30 WSW 21 gust 27 N/A N/A 100.9 11 93 10
8:30 WSW 18 gust 26 N/A N/A 100.9 11 92 10
7:30 WSW 20 gust 26 N/A N/A 100.8 11 91 10
6:30 WSW 20 gust 29 N/A N/A 100.8 11 90 10
5:30 WSW 21 gust 28 N/A N/A 100.7 11 89 10
4:30 WSW 22 gust 30 N/A N/A 100.7 11 89 10
3:30 WSW 23 gust 29 N/A N/A 100.7 11 88 9
2:30 WSW 23 gust 29 N/A N/A 100.7 11 87 9
1:30 WSW 24 gust 31 N/A N/A 100.7 11 87 9
0:30 WSW 30 gust 41 N/A N/A 100.6 11 87 9
20 September 2014
23:30 SW 33 gust 40 N/A N/A 100.7 11 90 9
22:30 SW 36 gust 43 N/A N/A 100.7 10 90 9
21:30 SW 34 gust 41 N/A N/A 100.7 10 89 8
20:30 SW 35 gust 42 N/A N/A 100.7 10 87 8
19:30 SW 39 gust 50 N/A N/A 100.7 11 79 7
18:30 SW 39 gust 46 N/A N/A 100.7 11 78 7
17:30 WSW 36 gust 47 N/A N/A 100.7 11 77 7
16:30 SW 39 gust 49 N/A N/A 100.8 11 73 7
15:30 SW 33 gust 45 N/A N/A 100.8 12 74 7
14:30 SW 39 gust 47 N/A N/A 100.8 11 70 6
13:30 SW 41 gust 50 N/A N/A 100.9 12 67 6
 
Map of Atlantic - Newfoundland marine weather areas Southwestern Grand Banks - 44138 Banquereau - 44139 Tail of the Bank - 44140 Nickerson Bank - 44251 Northeast Burgeo Bank - 44255 Blanc-Sablon Airport Cap Whittle Chevery Natashquan Airport Heath Point Miscou Island Grand Étang Ingonish Beach North Mountain St.Paul Island J.A. Douglas McCurdy Sydney Airport Charlottetown Airport East Point North Cape Argentia Bonavista Burgeo Cape Race Corner Brook Daniel's Harbour Englee Ferolle Point La Scie Port aux Basques Rocky Harbour Sagona Island St. Anthony Airport St. John's Int'l Airport St. Lawrence Stephenville Airport Twillingate Winterland Wreckhouse Cartwright Airport Mary's Harbour Grates Cove Pool's Island Marticot Island Long Pond Îles de la Madeleine Airport
Legend: buoyBuoy land stationLand Station